Time;durP1;ratioP1;P1;durP2;ratioP2;P2;SDS_P1;SDS_P2;PMS_P1;PMS_P2;Temp;Humidity;BMP_temperature;BMP_pressure;BME280_temperature;BME280_humidity;BME280_pressure;Samples;Min_cycle;Max_cycle;Signal;HPM_P1;HPM_P2
2020/12/17 00:00:40;;;;;;;38.77;8.77;;;6.50;99.90;;;7.23;100.00;98218.81;4994980;28;20463;-82
2020/12/17 00:03:08;;;;;;;49.70;13.50;;;6.40;99.90;;;7.20;100.00;98216.53;5008899;28;20535;-83
2020/12/17 00:05:35;;;;;;;32.03;9.50;;;6.30;99.90;;;7.22;100.00;98227.59;5001974;28;23907;-83
2020/12/17 00:08:04;;;;;;;54.57;10.90;;;6.40;99.90;;;7.18;100.00;98221.91;4996314;28;20493;-82
2020/12/17 00:10:31;;;;;;;56.93;10.50;;;6.40;99.90;;;7.23;100.00;98218.81;4994972;28;20489;-82
2020/12/17 00:12:59;;;;;;;47.27;11.73;;;6.50;99.90;;;7.22;100.00;98214.59;4995078;28;21097;-82
2020/12/17 00:15:27;;;;;;;25.07;7.60;;;6.50;99.90;;;7.06;100.00;98217.97;4993137;28;20451;-82
2020/12/17 00:17:54;;;;;;;36.13;8.67;;;6.30;99.90;;;7.05;100.00;98214.56;4996319;28;20927;-82
2020/12/17 00:20:24;;;;;;;14.63;7.53;;;6.20;99.90;;;7.03;100.00;98218.31;4996902;28;20521;-83
2020/12/17 00:22:51;;;;;;;26.23;8.50;;;6.20;99.90;;;7.04;100.00;98215.56;4995035;28;20983;-82
2020/12/17 00:25:20;;;;;;;19.33;8.00;;;6.20;99.90;;;7.10;100.00;98216.69;4996210;28;20856;-82
2020/12/17 00:27:48;;;;;;;35.33;9.03;;;6.30;99.90;;;7.14;100.00;98215.41;4996553;28;21025;-82
2020/12/17 00:30:18;;;;;;;31.63;8.47;;;6.30;99.90;;;7.11;100.00;98222.69;4994501;28;20467;-83
2020/12/17 00:32:47;;;;;;;23.53;8.70;;;6.30;99.90;;;7.13;100.00;98223.34;4996971;28;20511;-82
2020/12/17 00:35:16;;;;;;;60.17;9.23;;;6.30;99.90;;;7.13;100.00;98218.97;4995898;28;20464;-82
2020/12/17 00:37:44;;;;;;;43.87;8.67;;;6.40;99.90;;;7.12;100.00;98214.72;4996894;28;20451;-82
2020/12/17 00:40:14;;;;;;;30.73;8.63;;;6.40;99.90;;;7.11;100.00;98225.31;4994749;28;20960;-82
2020/12/17 00:42:45;;;;;;;46.97;9.00;;;6.30;99.90;;;7.07;100.00;98219.63;4996133;28;20466;-82
2020/12/17 00:45:15;;;;;;;23.03;8.50;;;6.30;99.90;;;7.04;100.00;98218.16;4994730;28;20464;-82
2020/12/17 00:47:42;;;;;;;21.43;7.03;;;6.20;99.90;;;6.99;100.00;98217.81;4996441;28;20599;-82
2020/12/17 00:50:12;;;;;;;34.53;7.63;;;6.20;99.90;;;6.88;100.00;98209.50;4994377;28;21010;-83
2020/12/17 00:52:41;;;;;;;17.43;7.07;;;6.10;99.90;;;6.92;100.00;98214.22;4994255;28;20491;-82
2020/12/17 00:55:10;;;;;;;15.63;7.03;;;6.10;99.90;;;6.91;100.00;98215.19;4996210;28;20471;-83
2020/12/17 00:57:38;;;;;;;17.17;7.47;;;6.10;99.90;;;6.78;100.00;98221.81;4997943;28;20854;-82
2020/12/17 01:00:07;;;;;;;30.03;6.67;;;5.80;99.90;;;6.68;100.00;98218.53;4995423;28;20459;-82
2020/12/17 01:02:36;;;;;;;25.30;7.53;;;5.90;99.90;;;6.75;100.00;98224.72;4992816;28;20474;-82
2020/12/17 01:05:04;;;;;;;29.83;8.77;;;5.90;99.90;;;6.78;100.00;98221.81;4997861;28;20834;-82
2020/12/17 01:07:32;;;;;;;34.57;7.10;;;5.90;99.90;;;6.79;100.00;98223.44;4998698;28;20589;-82
2020/12/17 01:10:03;;;;;;;31.00;7.70;;;6.00;99.90;;;6.75;100.00;98219.53;5000264;28;20711;-82
2020/12/17 01:12:31;;;;;;;24.60;7.10;;;5.90;99.90;;;6.72;100.00;98230.25;4999065;28;21141;-82
2020/12/17 01:14:59;;;;;;;16.00;7.20;;;5.90;99.90;;;6.71;100.00;98226.84;4999346;28;20525;-82
2020/12/17 01:17:27;;;;;;;17.07;6.90;;;5.90;99.90;;;6.68;100.00;98223.75;5000630;28;20816;-82
2020/12/17 01:19:55;;;;;;;17.37;6.73;;;5.80;99.90;;;6.65;100.00;98224.06;4998974;28;20474;-82
2020/12/17 01:22:23;;;;;;;36.27;6.70;;;5.90;99.90;;;6.56;100.00;98231.00;4997179;28;20458;-82
2020/12/17 01:24:50;;;;;;;9.40;6.47;;;5.70;99.90;;;6.49;100.00;98228.22;4999674;28;20473;-82
2020/12/17 01:27:19;;;;;;;16.13;6.60;;;5.60;99.90;;;6.48;100.00;98234.41;4998609;28;20812;-82
2020/12/17 01:29:46;;;;;;;14.73;5.90;;;5.60;99.90;;;6.55;100.00;98237.19;4997638;28;20840;-83
2020/12/17 01:32:14;;;;;;;18.03;6.80;;;5.70;99.90;;;6.60;100.00;98232.31;4998517;28;20494;-82
2020/12/17 01:34:42;;;;;;;23.93;7.10;;;5.80;99.90;;;6.59;100.00;98234.09;4997020;28;20498;-82
2020/12/17 01:37:20;;;;;;;12.40;7.37;;;5.80;99.90;;;6.54;100.00;98238.16;4998550;28;20994;-82
2020/12/17 01:39:48;;;;;;;15.43;6.30;;;5.70;99.90;;;6.47;100.00;98237.13;5000057;28;20816;-82
2020/12/17 01:42:15;;;;;;;37.90;7.33;;;5.70;99.90;;;6.46;100.00;98238.09;4997945;28;20528;-82
2020/12/17 01:44:46;;;;;;;28.47;7.10;;;5.60;99.90;;;6.20;100.00;98234.75;4997854;28;20805;-82
2020/12/17 01:47:14;;;;;;;26.27;6.70;;;5.40;99.90;;;6.28;100.00;98237.41;4999240;28;20459;-82
2020/12/17 01:49:43;;;;;;;34.83;7.87;;;5.50;99.90;;;6.28;100.00;98247.78;4998886;28;20529;-82
2020/12/17 01:52:10;;;;;;;82.23;7.40;;;5.50;99.90;;;6.26;100.00;98247.91;4997420;28;20522;-82
2020/12/17 01:54:38;;;;;;;14.77;5.50;;;5.40;99.90;;;6.24;100.00;98242.09;4998309;28;20474;-82
2020/12/17 01:57:06;;;;;;;29.40;6.40;;;5.40;99.90;;;6.22;100.00;98244.00;4997758;28;20953;-82
2020/12/17 01:59:48;;;;;;;19.90;5.50;;;5.40;99.90;;;6.25;100.00;98250.69;4997170;28;20464;-82
2020/12/17 02:02:17;;;;;;;11.17;5.60;;;5.40;99.90;;;6.34;100.00;98253.16;4996687;28;20474;-82
2020/12/17 02:04:47;;;;;;;9.53;6.10;;;5.50;99.90;;;6.40;100.00;98254.31;4998839;28;20883;-82
2020/12/17 02:07:15;;;;;;;22.90;6.37;;;5.60;99.90;;;6.32;100.00;98257.69;4996857;28;20601;-82
2020/12/17 02:09:43;;;;;;;11.37;5.67;;;5.50;99.90;;;6.22;100.00;98249.19;4998605;28;20471;-82
2020/12/17 02:12:11;;;;;;;11.50;6.33;;;5.40;99.90;;;6.24;100.00;98249.88;4999070;28;20491;-82
2020/12/17 02:14:39;;;;;;;14.53;6.77;;;5.40;99.90;;;6.17;100.00;98251.47;4998798;28;20467;-82
2020/12/17 02:17:06;;;;;;;9.63;5.07;;;5.30;99.90;;;6.21;100.00;98247.59;4999216;28;20471;-82
2020/12/17 02:19:34;;;;;;;15.80;4.97;;;5.40;99.90;;;6.21;100.00;98252.78;4997048;28;20459;-82
2020/12/17 02:22:02;;;;;;;36.70;5.70;;;5.40;99.90;;;6.18;100.00;98245.28;4997923;28;20459;-82
2020/12/17 02:24:31;;;;;;;15.63;6.00;;;5.40;99.90;;;6.16;100.00;98249.81;4999842;28;20867;-81
2020/12/17 02:26:58;;;;;;;38.37;5.80;;;5.30;99.90;;;6.15;100.00;98244.78;4998434;28;20466;-82
2020/12/17 02:29:26;;;;;;;53.53;7.93;;;5.30;99.90;;;6.12;100.00;98232.91;4998025;28;20487;-82
2020/12/17 02:31:53;;;;;;;30.70;6.47;;;5.30;99.90;;;5.99;100.00;98230.75;4998942;28;20510;-82
2020/12/17 02:34:21;;;;;;;40.23;5.40;;;5.20;99.90;;;5.83;100.00;98228.00;4996103;28;20918;-82
2020/12/17 02:36:48;;;;;;;38.53;5.90;;;5.00;99.90;;;5.87;100.00;98228.53;4996479;28;20559;-82
2020/12/17 02:39:16;;;;;;;12.27;4.97;;;5.00;99.90;;;5.88;100.00;98236.19;4996332;28;20479;-82
2020/12/17 02:41:44;;;;;;;18.57;5.33;;;5.10;99.90;;;5.88;100.00;98230.19;4999136;28;20462;-82
2020/12/17 02:44:13;;;;;;;20.07;4.73;;;5.10;99.90;;;5.84;100.00;98234.84;4996861;28;20467;-82
2020/12/17 02:46:41;;;;;;;22.53;5.47;;;5.00;99.90;;;5.84;100.00;98231.41;4998539;28;20944;-82
2020/12/17 02:49:08;;;;;;;14.20;4.43;;;4.90;99.90;;;5.84;100.00;98239.22;4997330;28;20851;-82
2020/12/17 02:51:39;;;;;;;12.80;5.23;;;5.00;99.90;;;5.77;100.00;98230.41;4997469;28;20510;-81
2020/12/17 02:54:07;;;;;;;11.47;5.13;;;4.90;99.90;;;5.59;100.00;98238.22;4995094;28;20546;-82
2020/12/17 02:56:34;;;;;;;14.30;5.00;;;4.70;99.90;;;5.51;100.00;98238.19;4997546;28;20538;-82
2020/12/17 02:59:03;;;;;;;17.40;5.27;;;4.70;99.90;;;5.39;100.00;98229.00;4997037;28;20475;-82
2020/12/17 03:01:30;;;;;;;12.83;5.40;;;4.50;99.90;;;5.49;100.00;98230.53;4996930;28;20475;-82
2020/12/17 03:03:58;;;;;;;10.87;5.80;;;4.70;99.90;;;5.55;100.00;98224.72;4996998;28;20964;-82
2020/12/17 03:06:25;;;;;;;14.00;5.60;;;4.80;99.90;;;5.51;100.00;98228.63;4996978;28;20464;-82
2020/12/17 03:08:53;;;;;;;13.03;5.23;;;4.70;99.90;;;5.50;100.00;98226.97;4996446;28;20471;-82
2020/12/17 03:11:20;;;;;;;14.57;5.90;;;4.70;99.90;;;5.43;100.00;98225.13;4998967;28;20471;-82
2020/12/17 03:13:48;;;;;;;10.40;5.10;;;4.60;99.90;;;5.44;100.00;98227.59;4997092;28;20502;-82
2020/12/17 03:16:17;;;;;;;18.73;5.87;;;4.60;99.90;;;5.49;100.00;98220.16;4996287;28;20970;-81
2020/12/17 03:18:45;;;;;;;8.23;5.30;;;4.70;99.90;;;5.52;100.00;98225.03;4998325;28;20475;-82
2020/12/17 03:21:12;;;;;;;15.20;6.10;;;4.70;99.90;;;5.50;100.00;98223.56;4997906;28;20460;-82
2020/12/17 03:23:40;;;;;;;7.93;5.00;;;4.70;99.90;;;5.50;100.00;98216.59;4998287;28;20467;-82
2020/12/17 03:26:08;;;;;;;8.97;4.97;;;4.70;99.90;;;5.38;100.00;98230.75;4996168;28;21824;-82
2020/12/17 03:28:36;;;;;;;6.93;5.23;;;4.60;99.90;;;5.24;100.00;98231.28;4997046;28;20498;-82
2020/12/17 03:31:03;;;;;;;6.43;4.90;;;4.40;99.90;;;5.24;100.00;98231.28;4997380;28;21107;-82
2020/12/17 03:33:31;;;;;;;7.63;5.00;;;4.40;99.90;;;5.36;100.00;98227.50;4996072;28;20565;-81
2020/12/17 03:35:59;;;;;;;9.63;6.03;;;4.60;99.90;;;5.40;100.00;98231.44;4996042;28;20598;-82
2020/12/17 03:38:42;;;;;;;7.43;5.00;;;4.60;99.90;;;5.37;100.00;98226.56;4997761;28;20455;-82
2020/12/17 03:41:09;;;;;;;35.13;6.70;;;4.60;99.90;;;5.19;100.00;98228.34;4996114;28;20462;-82
2020/12/17 03:43:37;;;;;;;27.50;6.10;;;4.40;99.90;;;5.26;100.00;98231.16;4995832;28;20884;-81
2020/12/17 03:46:04;;;;;;;9.40;5.60;;;4.50;99.90;;;5.26;100.00;98234.56;4997771;28;20932;-82
2020/12/17 03:48:33;;;;;;;10.23;5.07;;;4.50;99.90;;;5.27;100.00;98240.56;4996053;28;20471;-82
2020/12/17 03:51:00;;;;;;;8.07;4.77;;;4.50;99.90;;;5.34;100.00;98232.06;4993407;28;20503;-82
2020/12/17 03:53:28;;;;;;;9.13;5.10;;;4.60;99.90;;;5.33;100.00;98240.78;4994735;28;20502;-82
2020/12/17 03:55:55;;;;;;;8.23;5.13;;;4.60;99.90;;;5.24;100.00;98240.88;4996209;28;20532;-82
2020/12/17 03:58:23;;;;;;;13.90;4.93;;;4.40;99.90;;;5.24;100.00;98236.47;4994230;28;20463;-82
2020/12/17 04:00:50;;;;;;;8.20;5.43;;;4.50;99.90;;;5.25;100.00;98245.88;4995541;28;20467;-82
2020/12/17 04:03:18;;;;;;;10.93;4.67;;;4.50;99.90;;;5.23;100.00;98240.06;4997428;28;20460;-82
2020/12/17 04:05:47;;;;;;;6.10;4.30;;;4.40;99.90;;;5.21;100.00;98247.13;4994636;28;20478;-82
2020/12/17 04:08:15;;;;;;;10.33;5.03;;;4.40;99.90;;;5.21;100.00;98244.53;4996686;28;20586;-82
2020/12/17 04:10:42;;;;;;;7.13;4.17;;;4.50;99.90;;;5.23;100.00;98250.41;4996612;28;20525;-82
2020/12/17 04:13:10;;;;;;;9.83;5.60;;;4.50;99.90;;;5.17;100.00;98257.97;4997413;28;20506;-82
2020/12/17 04:15:37;;;;;;;6.27;4.53;;;4.40;99.90;;;5.17;100.00;98253.59;4994692;28;20460;-82
2020/12/17 04:18:05;;;;;;;8.03;4.57;;;4.40;99.90;;;5.17;100.00;98255.38;4996346;28;20470;-82
2020/12/17 04:20:32;;;;;;;4.90;3.90;;;4.40;99.90;;;5.15;100.00;98260.69;4995314;28;20462;-82
2020/12/17 04:23:00;;;;;;;7.87;4.23;;;4.40;99.90;;;5.16;100.00;98256.34;4997219;28;20468;-82
2020/12/17 04:25:28;;;;;;;7.87;4.20;;;4.40;99.90;;;5.12;100.00;98258.41;4995951;28;20538;-82
2020/12/17 04:27:55;;;;;;;9.43;4.40;;;4.30;99.90;;;5.05;100.00;98252.19;4997782;28;20576;-82
2020/12/17 04:30:23;;;;;;;8.37;4.00;;;4.30;99.90;;;4.96;100.00;98251.28;4995102;28;20476;-82
2020/12/17 04:32:50;;;;;;;8.93;4.80;;;4.20;99.90;;;4.94;100.00;98260.97;4995373;28;20499;-82
2020/12/17 04:35:18;;;;;;;10.60;4.40;;;4.10;99.90;;;5.01;100.00;98264.63;4995538;28;20468;-82
2020/12/17 04:37:46;;;;;;;7.80;4.10;;;4.20;99.90;;;5.00;100.00;98254.38;4994659;28;20468;-82
2020/12/17 04:40:14;;;;;;;4.60;3.90;;;4.20;99.90;;;5.00;100.00;98255.19;4998556;28;20509;-82
2020/12/17 04:42:47;;;;;;;9.87;4.57;;;4.20;99.90;;;4.94;100.00;98255.78;4999284;28;20522;-88
2020/12/17 04:45:16;;;;;;;8.60;3.90;;;4.20;99.90;;;4.95;100.00;98251.44;5000864;28;20471;-81
2020/12/17 04:47:47;;;;;;;6.80;4.17;;;4.10;99.90;;;4.92;100.00;98262.09;5001176;28;20459;-82
2020/12/17 04:50:16;;;;;;;8.93;4.40;;;4.10;99.90;;;4.90;100.00;98269.19;5000942;28;20471;-82
2020/12/17 04:52:44;;;;;;;7.30;3.87;;;4.10;99.90;;;4.85;100.00;98266.22;5000136;28;20494;-81
2020/12/17 04:55:13;;;;;;;9.83;3.97;;;4.00;99.90;;;4.80;100.00;98271.84;5001575;28;20866;-81
2020/12/17 04:57:45;;;;;;;7.90;4.70;;;4.00;99.90;;;4.82;100.00;98277.69;5001618;28;20444;-81
2020/12/17 05:00:16;;;;;;;5.30;3.93;;;4.00;99.90;;;4.80;100.00;98276.19;5001371;28;20947;-82
2020/12/17 05:02:47;;;;;;;8.60;5.47;;;3.90;99.90;;;4.87;100.00;98285.03;5000876;28;20447;-81
2020/12/17 05:05:17;;;;;;;7.37;3.83;;;4.10;99.90;;;4.86;100.00;98281.59;5001273;28;20447;-82
2020/12/17 05:07:44;;;;;;;5.73;3.67;;;4.10;99.90;;;4.82;100.00;98289.84;5002361;28;20805;-81
2020/12/17 05:10:12;;;;;;;12.90;3.77;;;4.00;99.90;;;4.80;100.00;98291.75;4999205;28;20805;-82
2020/12/17 05:12:40;;;;;;;5.10;3.40;;;4.00;99.90;;;4.78;100.00;98285.91;4998311;28;20487;-81
2020/12/17 05:15:08;;;;;;;5.83;3.70;;;4.00;99.90;;;4.68;100.00;98296.31;5000389;28;20521;-83
2020/12/17 05:17:35;;;;;;;9.27;4.30;;;3.90;99.90;;;4.69;100.00;98297.09;4999596;28;20483;-82
2020/12/17 05:20:05;;;;;;;5.20;3.50;;;3.90;99.90;;;4.75;100.00;98301.72;4998034;28;20470;-82
2020/12/17 05:22:41;;;;;;;5.20;3.30;;;4.00;99.90;;;4.70;100.00;98288.38;5001225;28;20438;-82
2020/12/17 05:25:09;;;;;;;11.20;3.60;;;4.00;99.90;;;4.68;100.00;98298.91;4999977;28;20468;-82
2020/12/17 05:27:38;;;;;;;7.10;3.00;;;4.00;99.90;;;4.65;100.00;98309.53;4998993;28;20929;-82
2020/12/17 05:30:06;;;;;;;6.00;3.60;;;3.90;99.90;;;4.63;100.00;98314.03;4998978;28;20514;-81
2020/12/17 05:32:33;;;;;;;5.90;4.17;;;3.80;99.90;;;4.69;100.00;98323.00;4993836;28;20490;-81
2020/12/17 05:35:05;;;;;;;6.17;3.70;;;3.90;99.90;;;4.69;100.00;98329.00;4996869;28;20467;-90
2020/12/17 05:37:33;;;;;;;9.00;3.80;;;3.90;99.90;;;4.74;100.00;98336.34;4997966;28;20822;-82
2020/12/17 05:40:02;;;;;;;7.97;4.10;;;4.00;99.90;;;4.74;100.00;98332.00;4996829;28;20517;-82
2020/12/17 05:42:30;;;;;;;4.13;2.97;;;4.00;99.90;;;4.79;100.00;98331.56;4997605;28;20971;-82
2020/12/17 05:44:58;;;;;;;8.77;3.40;;;4.00;99.90;;;4.78;100.00;98335.13;4999325;28;20943;-82
2020/12/17 05:47:26;;;;;;;8.10;3.67;;;4.00;99.90;;;4.76;100.00;98334.41;4997931;28;20462;-82
2020/12/17 05:49:53;;;;;;;15.93;3.80;;;4.00;99.90;;;4.77;100.00;98330.88;4997456;28;20542;-82
2020/12/17 05:52:23;;;;;;;10.83;3.23;;;4.00;99.90;;;4.81;100.00;98327.06;4998676;28;20548;-87
2020/12/17 05:55:01;;;;;;;6.13;3.60;;;4.10;99.90;;;4.76;100.00;98324.88;4996067;28;20549;-81
2020/12/17 05:57:30;;;;;;;12.03;4.00;;;4.00;99.90;;;4.85;100.00;98329.22;5001932;28;20854;-82
2020/12/17 06:00:01;;;;;;;9.73;3.90;;;4.10;99.90;;;4.90;100.00;98339.13;4998419;28;20448;-82
2020/12/17 06:02:31;;;;;;;5.33;3.73;;;4.20;99.90;;;4.88;100.00;98343.66;4998272;28;20475;-82
2020/12/17 06:05:10;;;;;;;4.20;3.50;;;4.20;99.90;;;4.84;100.00;98331.94;4997929;28;20884;-82
2020/12/17 06:07:49;;;;;;;7.53;3.50;;;4.10;99.90;;;4.78;100.00;98337.69;5000209;28;20856;-82
2020/12/17 06:10:24;;;;;;;9.30;4.17;;;4.00;99.90;;;4.81;100.00;98340.81;4999495;28;20457;-82
2020/12/17 06:12:55;;;;;;;10.60;3.73;;;4.00;99.90;;;4.83;100.00;98343.25;4999655;28;20495;-82
2020/12/17 06:15:26;;;;;;;6.27;3.90;;;4.10;99.90;;;4.85;100.00;98343.94;4997524;28;20490;-82
2020/12/17 06:17:56;;;;;;;9.30;3.40;;;4.10;99.90;;;4.85;100.00;98342.16;4999320;28;20460;-82
2020/12/17 06:20:27;;;;;;;10.40;3.90;;;4.20;99.90;;;4.88;100.00;98352.25;4998525;28;20448;-82
2020/12/17 06:22:57;;;;;;;3.83;3.00;;;4.20;99.90;;;4.86;100.00;98359.31;4997413;28;20502;-82
2020/12/17 06:25:27;;;;;;;6.37;3.80;;;4.10;99.90;;;4.92;100.00;98360.53;4999070;28;20484;-82
2020/12/17 06:27:55;;;;;;;7.57;4.03;;;4.20;99.90;;;4.87;100.00;98350.59;4999766;28;20475;-82
2020/12/17 06:30:27;;;;;;;7.60;4.30;;;4.10;99.90;;;4.90;100.00;98354.69;4998365;28;20470;-82
2020/12/17 06:32:57;;;;;;;5.70;4.10;;;4.20;99.90;;;4.96;100.00;98351.53;4997876;28;21002;-84
2020/12/17 06:35:50;;;;;;;12.50;4.20;;;4.20;99.90;;;4.97;100.00;98363.50;4997856;28;20486;-82
2020/12/17 06:38:24;;;;;;;7.03;4.13;;;4.20;99.90;;;5.00;100.00;98364.03;4995580;28;21045;-82
2020/12/17 06:40:51;;;;;;;4.53;4.10;;;4.30;99.90;;;5.04;100.00;98374.94;4996694;28;20459;-82
2020/12/17 06:43:31;;;;;;;7.20;4.07;;;4.30;99.90;;;5.08;100.00;98368.50;4998764;28;20444;-82
2020/12/17 06:46:02;;;;;;;6.10;3.90;;;4.40;99.90;;;5.13;100.00;98373.25;4996732;28;20509;-82
2020/12/17 06:48:34;;;;;;;7.23;4.90;;;4.50;99.90;;;5.14;100.00;98370.50;4994966;28;20467;-82
2020/12/17 06:51:29;;;;;;;9.30;5.37;;;4.40;99.90;;;5.23;100.00;98374.84;4995556;28;21513;-82
2020/12/17 06:53:57;;;;;;;8.60;5.23;;;4.50;99.90;;;5.29;100.00;98365.66;4997846;28;20556;-83
2020/12/17 06:56:25;;;;;;;112.37;39.87;;;4.60;99.90;;;5.28;100.00;98370.03;5004839;28;20455;-82
2020/12/17 06:59:19;;;;;;;13.50;6.57;;;4.60;99.90;;;5.30;100.00;98385.44;4995443;28;20843;-83
2020/12/17 07:01:51;;;;;;;10.43;4.90;;;4.60;99.90;;;5.33;100.00;98380.78;5002596;28;20875;-82
2020/12/17 07:04:41;;;;;;;9.60;5.23;;;4.60;99.90;;;5.39;100.00;98394.94;5000054;28;20510;-82
2020/12/17 07:07:15;;;;;;;11.10;5.00;;;4.70;99.90;;;5.39;100.00;98398.34;4999003;28;20948;-81
2020/12/17 07:09:45;;;;;;;10.03;5.07;;;4.70;99.90;;;5.41;100.00;98388.66;4999253;28;20506;-81
2020/12/17 07:12:33;;;;;;;14.33;5.97;;;4.70;99.90;;;5.47;100.00;98387.25;4997920;28;20841;-81
2020/12/17 07:15:02;;;;;;;9.50;5.40;;;4.70;99.90;;;5.46;100.00;98394.22;4998047;28;20472;-82
2020/12/17 07:17:30;;;;;;;10.97;5.20;;;4.80;99.90;;;5.46;100.00;98386.44;4998519;28;20463;-81
2020/12/17 07:19:58;;;;;;;7.90;5.17;;;4.80;99.90;;;5.48;100.00;98389.69;4999586;28;20463;-81
2020/12/17 07:22:26;;;;;;;8.90;4.97;;;4.80;99.90;;;5.48;100.00;98404.44;4998422;28;20817;-81
2020/12/17 07:24:55;;;;;;;10.90;4.97;;;4.80;99.90;;;5.47;100.00;98395.84;4998839;28;20439;-81
2020/12/17 07:27:25;;;;;;;13.57;5.33;;;4.70;99.90;;;5.52;100.00;98406.56;5000471;28;20874;-82
2020/12/17 07:30:02;;;;;;;12.47;5.10;;;4.80;99.90;;;5.57;100.00;98409.56;4999832;28;20451;-82
2020/12/17 07:32:34;;;;;;;11.20;4.93;;;4.80;99.90;;;5.59;100.00;98410.22;4999800;28;20995;-81
2020/12/17 07:35:22;;;;;;;12.53;5.30;;;4.90;99.90;;;5.63;100.00;98418.53;4999494;28;20470;-82
2020/12/17 07:37:57;;;;;;;25.23;5.40;;;4.90;99.90;;;5.70;100.00;98429.13;5000383;28;20463;-81
2020/12/17 07:40:31;;;;;;;7.00;4.80;;;5.00;99.90;;;5.67;100.00;98426.81;5000146;28;20962;-82
2020/12/17 07:43:13;;;;;;;7.87;5.10;;;4.90;99.90;;;5.71;100.00;98428.19;4998808;28;20510;-82
2020/12/17 07:45:51;;;;;;;6.60;4.60;;;4.90;99.90;;;5.74;100.00;98441.66;4999050;28;20450;-81
2020/12/17 07:48:43;;;;;;;8.40;4.90;;;5.00;99.90;;;5.79;100.00;98443.84;5000916;28;20530;-82
2020/12/17 07:51:31;;;;;;;8.60;5.03;;;5.00;99.90;;;5.83;100.00;98445.19;4998209;28;20467;-81
2020/12/17 07:54:04;;;;;;;7.40;4.67;;;5.10;99.90;;;5.83;100.00;98445.19;4988091;28;20497;-81
2020/12/17 07:56:33;;;;;;;7.73;4.30;;;5.10;99.90;;;5.87;100.00;98449.94;4999286;28;20447;-82
2020/12/17 07:59:04;;;;;;;8.23;4.60;;;5.20;99.90;;;5.90;100.00;98441.06;4999038;28;20940;-82
2020/12/17 08:01:33;;;;;;;7.43;4.70;;;5.20;99.90;;;5.90;100.00;98449.63;4999727;28;21044;-81
2020/12/17 08:04:02;;;;;;;4.70;3.90;;;5.20;99.90;;;5.94;100.00;98461.34;4999396;28;20455;-81
2020/12/17 08:06:30;;;;;;;6.90;3.83;;;5.20;99.90;;;5.95;100.00;98465.59;4999566;28;20440;-81
2020/12/17 08:09:00;;;;;;;18.23;4.57;;;5.20;99.90;;;5.98;100.00;98470.50;4999862;28;20454;-81
2020/12/17 08:11:36;;;;;;;10.83;4.47;;;5.30;99.90;;;6.04;100.00;98469.06;5000833;28;20535;-81
2020/12/17 08:14:07;;;;;;;8.27;4.77;;;5.40;99.90;;;6.08;100.00;98467.81;4999691;28;20503;-81
2020/12/17 08:16:36;;;;;;;9.83;5.10;;;5.40;99.90;;;6.13;100.00;98462.19;4999087;28;20446;-82
2020/12/17 08:19:05;;;;;;;13.90;5.50;;;5.50;99.90;;;6.17;100.00;98472.13;4999380;28;20443;-82
2020/12/17 08:21:32;;;;;;;11.20;5.97;;;5.50;99.90;;;6.22;100.00;98477.69;4999081;28;20455;-82
2020/12/17 08:24:00;;;;;;;9.50;6.50;;;5.50;99.90;;;6.23;100.00;98479.31;4998994;28;21019;-82
2020/12/17 08:26:30;;;;;;;12.83;7.07;;;5.60;99.90;;;6.27;100.00;98488.44;4997944;28;20448;-82
2020/12/17 08:28:58;;;;;;;11.93;6.87;;;5.60;99.90;;;6.28;100.00;98497.84;4999013;28;20996;-82
2020/12/17 08:31:28;;;;;;;24.10;7.20;;;5.60;99.90;;;6.28;100.00;98503.03;4998699;28;20841;-82
2020/12/17 08:33:58;;;;;;;11.23;6.20;;;5.70;99.90;;;6.33;100.00;98508.63;4998050;28;20496;-82
2020/12/17 08:36:29;;;;;;;8.70;6.10;;;5.70;99.90;;;6.38;100.00;98508.19;4998896;28;20503;-82
2020/12/17 08:39:00;;;;;;;9.17;6.13;;;5.70;99.90;;;6.40;100.00;98512.25;4998947;28;20466;-82
2020/12/17 08:41:32;;;;;;;12.30;6.20;;;5.70;99.90;;;6.44;100.00;98504.97;4998699;28;20448;-82
2020/12/17 08:44:04;;;;;;;15.60;6.60;;;5.80;99.90;;;6.49;100.00;98506.16;4998649;28;20455;-82
2020/12/17 08:46:35;;;;;;;11.57;6.70;;;5.90;99.90;;;6.53;100.00;98507.50;4998711;28;20466;-82
2020/12/17 08:49:07;;;;;;;21.70;7.20;;;5.90;99.90;;;6.61;100.00;98511.13;4999062;28;20455;-82
2020/12/17 08:51:37;;;;;;;10.93;6.37;;;6.00;99.90;;;6.64;100.00;98516.00;4999800;28;20467;-82
2020/12/17 08:54:06;;;;;;;10.37;6.90;;;6.00;99.90;;;6.69;100.00;98524.19;4998428;28;20501;-83
2020/12/17 08:56:33;;;;;;;15.77;7.60;;;6.00;99.90;;;6.71;100.00;98519.66;4999108;28;20451;-82
2020/12/17 08:59:04;;;;;;;18.13;7.27;;;5.90;99.90;;;6.76;100.00;98528.63;4998293;28;20456;-82
2020/12/17 09:01:34;;;;;;;15.73;6.60;;;6.10;99.90;;;6.81;100.00;98531.59;4998371;28;20509;-82
2020/12/17 09:04:08;;;;;;;11.37;7.07;;;6.20;99.90;;;6.84;100.00;98533.06;4998018;28;20448;-82
2020/12/17 09:06:38;;;;;;;8.97;6.37;;;6.20;99.90;;;6.89;100.00;98542.06;4999502;28;20942;-82
2020/12/17 09:09:14;;;;;;;9.07;5.67;;;6.20;99.90;;;6.95;100.00;98545.81;5000611;28;20855;-82
2020/12/17 09:11:45;;;;;;;15.07;6.30;;;6.30;99.90;;;7.00;100.00;98560.00;4999671;28;20442;-82
2020/12/17 09:14:19;;;;;;;10.10;6.93;;;6.30;99.90;;;7.07;100.00;98561.03;4999632;28;20498;-82
2020/12/17 09:16:54;;;;;;;11.60;6.83;;;6.40;99.90;;;7.14;100.00;98561.25;5000671;28;20483;-82
2020/12/17 09:19:32;;;;;;;8.93;6.27;;;6.40;99.90;;;7.21;100.00;98567.47;5000514;28;20509;-82
2020/12/17 09:22:01;;;;;;;10.00;6.33;;;6.60;99.90;;;7.29;100.00;98571.91;4999228;28;20937;-82
2020/12/17 09:24:31;;;;;;;20.10;7.30;;;6.60;99.90;;;7.34;100.00;98580.88;4998768;28;20440;-82
2020/12/17 09:27:21;;;;;;;11.07;6.43;;;6.70;99.90;;;7.40;100.00;98582.84;5001196;28;20453;-82
2020/12/17 09:30:07;;;;;;;8.40;5.80;;;6.80;99.90;;;7.48;100.00;98582.91;5002214;28;20482;-82
2020/12/17 09:32:38;;;;;;;16.33;7.70;;;6.80;99.90;;;7.53;100.00;98585.84;5001584;28;20448;-82
2020/12/17 09:35:11;;;;;;;11.63;6.73;;;6.90;99.90;;;7.58;100.00;98590.59;5001732;28;20447;-82
2020/12/17 09:37:42;;;;;;;15.17;7.27;;;7.00;99.90;;;7.65;100.00;98590.78;5002365;28;20456;-82
2020/12/17 09:40:12;;;;;;;9.90;6.53;;;7.10;99.90;;;7.70;100.00;98598.97;5001824;28;20446;-82
2020/12/17 09:42:40;;;;;;;13.03;8.33;;;7.10;99.90;;;7.76;100.00;98588.75;5001382;28;20447;-82
2020/12/17 09:45:15;;;;;;;13.40;7.10;;;7.20;99.90;;;7.82;100.00;98600.31;5000657;28;20451;-82
2020/12/17 09:47:44;;;;;;;10.20;5.83;;;7.30;99.90;;;7.88;100.00;98602.31;5000754;28;20815;-82
2020/12/17 09:50:15;;;;;;;8.60;6.17;;;7.30;99.90;;;7.93;100.00;98597.44;5001635;28;20840;-83
2020/12/17 09:52:45;;;;;;;11.33;6.30;;;7.40;99.90;;;7.99;100.00;98608.03;5000588;28;20454;-83
2020/12/17 09:55:13;;;;;;;10.80;4.80;;;7.50;99.90;;;8.05;100.00;98606.63;5001502;28;20452;-83
2020/12/17 09:57:44;;;;;;;14.57;4.90;;;7.50;99.90;;;8.10;100.00;98606.94;5002694;28;20458;-82
2020/12/17 10:00:14;;;;;;;7.60;4.47;;;7.60;99.90;;;8.16;100.00;98615.94;5001385;28;20531;-83
2020/12/17 10:02:43;;;;;;;14.33;3.90;;;7.60;99.90;;;8.20;100.00;98620.66;5000931;28;20564;-82
2020/12/17 10:05:12;;;;;;;6.00;3.90;;;7.70;99.90;;;8.26;100.00;98624.44;5000173;28;20448;-82
2020/12/17 10:07:46;;;;;;;10.17;3.90;;;7.80;99.90;;;8.32;100.00;98629.03;5001658;28;20861;-82
2020/12/17 10:10:15;;;;;;;4.87;3.87;;;7.90;99.90;;;8.38;100.00;98628.41;4999826;28;20967;-83
2020/12/17 10:12:44;;;;;;;5.63;3.53;;;7.90;99.90;;;8.41;100.00;98628.91;5000281;28;20454;-82
2020/12/17 10:15:12;;;;;;;14.90;3.67;;;7.90;99.90;;;8.44;100.00;98619.94;5001374;28;20470;-82
2020/12/17 10:17:40;;;;;;;5.23;3.43;;;8.00;99.90;;;8.49;100.00;98626.31;5001920;28;20899;-83
2020/12/17 10:20:10;;;;;;;6.60;3.40;;;8.00;99.90;;;8.52;100.00;98625.19;5001678;28;20447;-82
2020/12/17 10:22:45;;;;;;;4.23;3.30;;;8.10;99.90;;;8.54;100.00;98629.25;5001931;28;20447;-82
2020/12/17 10:25:17;;;;;;;3.50;3.00;;;8.10;99.90;;;8.55;100.00;98641.31;5002274;28;20454;-82
2020/12/17 10:27:46;;;;;;;6.37;3.80;;;8.10;99.90;;;8.59;100.00;98632.19;5002231;28;20467;-82
2020/12/17 10:30:15;;;;;;;4.40;3.30;;;8.10;99.90;;;8.61;100.00;98628.63;5000773;28;20471;-82
2020/12/17 10:32:42;;;;;;;6.00;4.10;;;8.10;99.90;;;8.64;100.00;98639.56;5001550;28;20486;-82
2020/12/17 10:35:11;;;;;;;5.27;3.60;;;8.20;99.90;;;8.66;100.00;98640.19;5001030;28;20460;-82